createdAt,value
2022-07-26T00:00:50.627Z,14.77
2022-07-26T00:03:17.900Z,13.88
2022-07-26T00:05:45.056Z,13.98
2022-07-26T00:08:12.448Z,12.68
2022-07-26T00:10:45.263Z,11.18
2022-07-26T00:13:13.589Z,12.48
2022-07-26T00:15:40.857Z,13.27
2022-07-26T00:18:12.062Z,14.13
2022-07-26T00:20:40.021Z,17.27
2022-07-26T00:23:08.697Z,14.18
2022-07-26T00:25:35.969Z,18.20
2022-07-26T00:28:03.300Z,16.33
2022-07-26T00:30:30.771Z,16.92
2022-07-26T00:32:58.012Z,13.25
2022-07-26T00:35:25.306Z,15.27
2022-07-26T00:37:52.987Z,21.63
2022-07-26T00:40:20.088Z,18.88
2022-07-26T00:42:47.423Z,15.23
2022-07-26T00:45:15.420Z,16.48
2022-07-26T00:47:42.662Z,14.55
2022-07-26T00:50:13.813Z,14.15
2022-07-26T00:52:49.380Z,15.57
2022-07-26T00:55:18.223Z,19.02
2022-07-26T00:57:45.993Z,14.77
2022-07-26T01:00:17.964Z,12.98
2022-07-26T01:02:45.902Z,14.80
2022-07-26T01:05:13.270Z,15.63
2022-07-26T01:07:41.149Z,12.80
2022-07-26T01:10:12.694Z,13.05
2022-07-26T01:12:41.294Z,16.52
2022-07-26T01:15:09.929Z,14.45
2022-07-26T01:17:38.241Z,12.80
2022-07-26T01:20:08.686Z,16.15
2022-07-26T01:22:35.974Z,13.27
2022-07-26T01:25:03.229Z,19.05
2022-07-26T01:27:33.939Z,15.30
2022-07-26T01:30:01.337Z,18.15
2022-07-26T01:32:28.579Z,21.10
2022-07-26T01:34:55.620Z,16.85
2022-07-26T01:37:22.671Z,12.40
2022-07-26T01:39:49.843Z,13.02
2022-07-26T01:42:16.917Z,13.13
2022-07-26T01:44:44.122Z,14.00
2022-07-26T01:47:11.158Z,15.73
2022-07-26T01:49:38.332Z,14.32
2022-07-26T01:52:05.779Z,13.32
2022-07-26T01:54:32.890Z,12.60
2022-07-26T01:56:59.921Z,14.25
2022-07-26T01:59:27.093Z,14.13
2022-07-26T02:01:54.335Z,13.68
2022-07-26T02:04:39.890Z,13.90
2022-07-26T02:07:10.783Z,18.02
2022-07-26T02:09:40.583Z,15.27
2022-07-26T02:12:07.984Z,16.77
2022-07-26T02:14:35.105Z,13.00
2022-07-26T02:17:02.314Z,17.27
2022-07-26T02:19:30.004Z,12.75
2022-07-26T02:21:57.323Z,13.23
2022-07-26T02:24:24.601Z,13.38
2022-07-26T02:26:52.001Z,11.75
2022-07-26T02:29:19.182Z,12.70
2022-07-26T02:31:48.506Z,14.38
2022-07-26T02:34:16.764Z,12.73
2022-07-26T02:36:44.112Z,13.02
2022-07-26T02:39:11.514Z,17.30
2022-07-26T02:41:39.099Z,17.13
2022-07-26T02:44:07.394Z,18.13
2022-07-26T02:46:35.272Z,20.88
2022-07-26T02:49:02.440Z,9.95
2022-07-26T02:51:29.716Z,10.73
2022-07-26T02:53:56.858Z,13.98
2022-07-26T02:56:24.015Z,13.15
2022-07-26T02:58:51.250Z,14.73
2022-07-26T03:01:18.479Z,14.77
2022-07-26T03:03:50.400Z,13.15
2022-07-26T03:06:19.209Z,14.93
2022-07-26T03:08:47.303Z,11.57
2022-07-26T03:11:14.574Z,12.80
2022-07-26T03:13:41.699Z,12.50
2022-07-26T03:16:09.202Z,10.25
2022-07-26T03:18:36.411Z,13.32
2022-07-26T03:21:03.927Z,12.40
2022-07-26T03:23:33.753Z,16.60
2022-07-26T03:26:02.602Z,12.13
2022-07-26T03:28:33.898Z,12.55
2022-07-26T03:31:01.655Z,14.57
2022-07-26T03:33:30.506Z,16.25
2022-07-26T03:35:57.700Z,16.65
2022-07-26T03:38:24.901Z,16.88
2022-07-26T03:40:52.618Z,19.15
2022-07-26T03:43:23.029Z,13.27
2022-07-26T03:45:51.239Z,15.25
2022-07-26T03:48:21.999Z,14.70
2022-07-26T03:50:49.021Z,12.80
2022-07-26T03:53:16.089Z,12.43
2022-07-26T03:56:01.644Z,13.50
2022-07-26T03:58:28.911Z,16.27
2022-07-26T04:00:56.138Z,11.95
2022-07-26T04:03:23.389Z,11.57
2022-07-26T04:05:50.591Z,10.40
2022-07-26T04:08:20.164Z,13.57
2022-07-26T04:10:53.890Z,12.82
2022-07-26T04:13:21.229Z,15.57
2022-07-26T04:15:48.352Z,17.17
2022-07-26T04:18:15.734Z,10.75
2022-07-26T04:20:43.508Z,18.38
2022-07-26T04:23:11.819Z,15.32
2022-07-26T04:25:41.535Z,13.48
2022-07-26T04:28:10.043Z,11.45
2022-07-26T04:30:37.590Z,15.52
2022-07-26T04:33:05.649Z,12.10
2022-07-26T04:35:33.447Z,11.93
2022-07-26T04:38:02.562Z,13.65
2022-07-26T04:40:33.679Z,15.48
2022-07-26T04:43:02.369Z,13.77
2022-07-26T04:45:30.270Z,14.05
2022-07-26T04:47:58.460Z,15.15
2022-07-26T04:50:28.202Z,20.17
2022-07-26T04:52:55.787Z,14.13
2022-07-26T04:55:23.839Z,13.45
2022-07-26T04:57:51.842Z,17.75
2022-07-26T05:00:24.228Z,23.45
2022-07-26T05:02:57.977Z,20.85
2022-07-26T05:05:27.386Z,17.85
2022-07-26T05:07:56.605Z,21.52
2022-07-26T05:10:34.081Z,12.85
2022-07-26T05:13:04.097Z,13.57
2022-07-26T05:15:35.542Z,12.25
2022-07-26T05:18:10.963Z,12.63
2022-07-26T05:20:41.012Z,11.75
2022-07-26T05:23:08.216Z,16.48
2022-07-26T05:25:36.725Z,10.57
2022-07-26T05:28:04.417Z,14.35
2022-07-26T05:30:31.688Z,12.40
2022-07-26T05:32:58.944Z,14.38
2022-07-26T05:35:26.067Z,10.02
2022-07-26T05:37:53.219Z,14.02
2022-07-26T05:40:20.512Z,7.93
2022-07-26T05:42:47.577Z,11.10
2022-07-26T05:45:14.811Z,12.27
2022-07-26T05:47:41.955Z,8.20
2022-07-26T05:50:09.514Z,8.07
2022-07-26T05:52:36.745Z,11.02
2022-07-26T05:55:04.166Z,9.52
2022-07-26T05:57:31.407Z,12.35
2022-07-26T05:59:58.458Z,10.65
2022-07-26T06:02:25.648Z,14.25
2022-07-26T06:04:52.982Z,15.15
2022-07-26T06:07:20.214Z,12.10
2022-07-26T06:09:47.337Z,11.35
2022-07-26T06:12:14.538Z,11.93
2022-07-26T06:14:41.674Z,8.80
2022-07-26T06:17:09.118Z,8.52
2022-07-26T06:19:36.250Z,11.40
2022-07-26T06:22:04.220Z,8.75
2022-07-26T06:24:31.675Z,15.52
2022-07-26T06:27:04.945Z,10.27
2022-07-26T06:29:33.412Z,9.80
2022-07-26T06:32:00.880Z,9.50
2022-07-26T06:34:28.371Z,8.00
2022-07-26T06:36:55.661Z,6.57
2022-07-26T06:39:22.910Z,15.32
2022-07-26T06:41:50.258Z,9.65
2022-07-26T06:44:23.018Z,14.65
2022-07-26T06:46:50.362Z,8.55
2022-07-26T06:49:21.959Z,11.30
2022-07-26T06:51:49.667Z,7.00
2022-07-26T06:54:16.825Z,14.90
2022-07-26T06:56:44.117Z,8.02
2022-07-26T06:59:11.242Z,10.43
2022-07-26T07:01:51.725Z,12.15
2022-07-26T07:04:25.650Z,10.38
2022-07-26T07:06:52.755Z,10.88
2022-07-26T07:09:20.087Z,7.80
2022-07-26T07:11:53.696Z,8.80
2022-07-26T07:14:25.892Z,11.65
2022-07-26T07:16:53.219Z,8.98
2022-07-26T07:19:20.415Z,10.60
2022-07-26T07:21:47.500Z,11.27
2022-07-26T07:24:14.890Z,11.70
2022-07-26T07:26:42.384Z,22.92
2022-07-26T07:29:15.509Z,22.38
2022-07-26T07:31:48.001Z,30.60
2022-07-26T07:34:19.677Z,31.48
2022-07-26T07:36:47.159Z,46.60
2022-07-26T07:39:17.454Z,31.63
2022-07-26T07:41:47.235Z,36.70
2022-07-26T07:44:14.838Z,43.47
2022-07-26T07:46:42.174Z,37.33
2022-07-26T07:49:11.106Z,31.88
2022-07-26T07:51:38.835Z,22.38
2022-07-26T07:54:06.408Z,19.00
2022-07-26T07:56:34.778Z,22.42
2022-07-26T07:59:02.138Z,19.63
2022-07-26T08:01:40.312Z,17.27
2022-07-26T08:04:09.710Z,17.75
2022-07-26T08:06:37.142Z,17.88
2022-07-26T08:09:06.388Z,16.73
2022-07-26T08:11:34.319Z,15.32
2022-07-26T08:14:02.331Z,14.55
2022-07-26T08:16:29.694Z,12.77
2022-07-26T08:18:58.374Z,12.85
2022-07-26T08:21:29.095Z,13.07
2022-07-26T08:23:57.546Z,15.63
2022-07-26T08:26:25.104Z,13.77
2022-07-26T08:28:59.856Z,13.95
2022-07-26T08:31:29.115Z,17.10
2022-07-26T08:33:56.597Z,13.98
2022-07-26T08:36:26.178Z,14.88
2022-07-26T08:38:58.263Z,14.05
2022-07-26T08:41:25.361Z,13.95
2022-07-26T08:43:53.755Z,13.43
2022-07-26T08:46:26.535Z,15.32
2022-07-26T08:48:56.936Z,17.08
2022-07-26T08:51:25.790Z,10.80
2022-07-26T08:54:03.741Z,12.10
2022-07-26T08:56:34.395Z,11.25
2022-07-26T08:59:17.177Z,12.52
2022-07-26T09:02:00.071Z,11.85
2022-07-26T09:04:35.378Z,13.00
2022-07-26T09:07:19.247Z,12.68
2022-07-26T09:09:55.548Z,10.63
2022-07-26T09:12:24.374Z,11.75
2022-07-26T09:14:51.866Z,8.70
2022-07-26T09:17:21.145Z,12.38
2022-07-26T09:20:13.265Z,12.68
2022-07-26T09:22:58.718Z,11.85
2022-07-26T09:25:27.298Z,11.88
2022-07-26T09:27:54.837Z,11.70
2022-07-26T09:30:22.273Z,11.45
2022-07-26T09:33:03.231Z,14.50
2022-07-26T09:35:50.939Z,11.32
2022-07-26T09:38:19.484Z,10.98
2022-07-26T09:40:50.600Z,8.93
2022-07-26T09:43:24.202Z,9.63
2022-07-26T09:46:06.280Z,11.15
2022-07-26T09:48:59.341Z,10.32
2022-07-26T09:51:42.152Z,16.48
2022-07-26T09:54:11.590Z,11.75
2022-07-26T09:56:57.609Z,12.15
2022-07-26T09:59:26.235Z,14.35
2022-07-26T10:01:54.900Z,10.73
2022-07-26T10:04:22.235Z,11.32
2022-07-26T10:06:49.719Z,12.73
2022-07-26T10:09:18.733Z,15.35
2022-07-26T10:11:57.367Z,11.02
2022-07-26T10:14:33.790Z,9.20
2022-07-26T10:17:21.904Z,11.13
2022-07-26T10:20:03.803Z,13.68
2022-07-26T10:22:31.387Z,15.52
2022-07-26T10:25:18.376Z,12.70
2022-07-26T10:27:47.453Z,9.63
2022-07-26T10:30:17.747Z,11.68
2022-07-26T10:32:59.851Z,13.32
2022-07-26T10:35:30.294Z,10.88
2022-07-26T10:37:59.789Z,11.38
2022-07-26T10:40:30.368Z,11.38
2022-07-26T10:43:39.408Z,15.20
2022-07-26T10:46:18.109Z,6.97
2022-07-26T10:49:09.023Z,9.27
2022-07-26T10:51:41.175Z,13.35
2022-07-26T10:54:14.087Z,12.75
2022-07-26T10:56:41.576Z,9.10
2022-07-26T10:59:08.842Z,12.32
2022-07-26T11:01:38.733Z,12.32
2022-07-26T11:04:07.578Z,9.98
2022-07-26T11:06:35.044Z,11.25
2022-07-26T11:09:11.164Z,16.65
2022-07-26T11:11:38.819Z,10.32
2022-07-26T11:14:11.617Z,13.45
2022-07-26T11:16:50.230Z,11.88
2022-07-26T11:19:20.233Z,11.23
2022-07-26T11:21:55.577Z,12.95
2022-07-26T11:24:23.010Z,12.07
2022-07-26T11:26:50.551Z,12.82
2022-07-26T11:29:35.636Z,13.80
2022-07-26T11:32:17.729Z,10.48
2022-07-26T11:34:46.176Z,11.55
2022-07-26T11:37:13.844Z,12.05
2022-07-26T11:39:41.302Z,12.27
2022-07-26T11:42:19.804Z,9.63
2022-07-26T11:44:48.587Z,9.15
2022-07-26T11:47:24.399Z,9.88
2022-07-26T11:52:41.235Z,9.00
2022-07-26T11:55:09.109Z,10.23
2022-07-26T11:57:36.350Z,8.95
2022-07-26T12:00:04.777Z,12.55
2022-07-26T12:02:40.892Z,8.57
2022-07-26T12:05:20.294Z,11.40
2022-07-26T12:08:05.413Z,9.15
2022-07-26T12:10:33.041Z,10.48
2022-07-26T12:13:08.002Z,8.23
2022-07-26T12:15:49.596Z,11.40
2022-07-26T12:18:50.963Z,8.23
2022-07-26T12:21:18.073Z,14.23
2022-07-26T12:23:49.037Z,9.60
2022-07-26T12:26:29.424Z,11.02
2022-07-26T12:28:58.448Z,14.05
2022-07-26T12:31:27.440Z,9.15
2022-07-26T12:33:55.305Z,9.45
2022-07-26T12:36:28.018Z,13.40
2022-07-26T12:39:00.599Z,16.13
2022-07-26T12:41:39.592Z,10.60
2022-07-26T12:44:08.765Z,10.77
2022-07-26T12:46:36.654Z,14.10
2022-07-26T12:49:05.333Z,8.25
2022-07-26T12:51:33.094Z,13.07
2022-07-26T12:54:00.355Z,10.73
2022-07-26T12:56:30.651Z,8.38
2022-07-26T12:59:01.761Z,10.77
2022-07-26T13:01:30.336Z,9.93
2022-07-26T13:03:57.711Z,10.82
2022-07-26T13:06:25.010Z,11.35
2022-07-26T13:08:56.760Z,8.75
2022-07-26T13:11:24.224Z,7.00
2022-07-26T13:13:51.493Z,7.63
2022-07-26T13:16:18.778Z,9.15
2022-07-26T13:18:47.920Z,11.05
2022-07-26T13:21:15.063Z,8.90
2022-07-26T13:23:44.548Z,9.93
2022-07-26T13:26:14.164Z,12.30
2022-07-26T13:28:41.889Z,9.73
2022-07-26T13:31:09.466Z,7.05
2022-07-26T13:33:39.463Z,14.73
2022-07-26T13:36:07.055Z,9.80
2022-07-26T13:38:34.263Z,13.57
2022-07-26T13:41:03.554Z,13.05
2022-07-26T13:43:33.360Z,12.73
2022-07-26T13:46:00.652Z,16.65
2022-07-26T13:48:30.029Z,8.02
2022-07-26T13:50:57.891Z,13.48
2022-07-26T13:53:25.311Z,8.93
2022-07-26T13:55:52.585Z,14.32
2022-07-26T13:58:21.861Z,8.10
2022-07-26T14:00:49.487Z,15.68
2022-07-26T14:03:17.056Z,10.43
2022-07-26T14:05:44.274Z,11.68
2022-07-26T14:08:11.748Z,10.73
2022-07-26T14:10:40.183Z,11.43
2022-07-26T14:13:08.512Z,15.02
2022-07-26T14:15:36.482Z,12.18
2022-07-26T14:18:04.198Z,15.75
2022-07-26T14:20:31.353Z,16.55
2022-07-26T14:22:58.429Z,14.10
2022-07-26T14:25:27.856Z,13.45
2022-07-26T14:27:55.603Z,11.48
2022-07-26T14:30:23.504Z,13.20
2022-07-26T14:32:51.201Z,13.23
2022-07-26T14:35:18.469Z,18.75
2022-07-26T14:37:46.218Z,12.82
2022-07-26T14:40:16.156Z,17.15
2022-07-26T14:42:43.867Z,14.68
2022-07-26T14:45:12.682Z,14.00
2022-07-26T14:47:40.482Z,12.02
2022-07-26T14:50:09.302Z,16.42
2022-07-26T14:52:42.534Z,14.05
2022-07-26T14:55:10.251Z,15.60
2022-07-26T14:57:39.103Z,13.55
2022-07-26T15:00:13.151Z,14.38
2022-07-26T15:02:45.771Z,13.60
2022-07-26T15:05:14.418Z,15.93
2022-07-26T15:07:42.282Z,14.13
2022-07-26T15:10:12.209Z,14.50
2022-07-26T15:12:39.908Z,16.17
2022-07-26T15:15:07.946Z,11.90
2022-07-26T15:17:36.142Z,16.10
2022-07-26T15:20:04.206Z,19.65
2022-07-26T15:22:31.532Z,19.17
2022-07-26T15:24:58.772Z,15.00
2022-07-26T15:27:26.034Z,16.77
2022-07-26T15:29:53.154Z,18.38
2022-07-26T15:32:21.497Z,19.13
2022-07-26T15:34:49.033Z,19.90
2022-07-26T15:37:16.563Z,19.45
2022-07-26T15:39:43.693Z,16.70
2022-07-26T15:42:11.041Z,18.90
2022-07-26T15:44:42.884Z,21.08
2022-07-26T15:47:11.015Z,19.60
2022-07-26T15:49:40.165Z,15.27
2022-07-26T15:52:12.996Z,15.98
2022-07-26T15:54:42.503Z,20.52
2022-07-26T15:57:09.796Z,20.67
2022-07-26T15:59:36.973Z,14.23
2022-07-26T16:02:06.186Z,17.67
2022-07-26T16:04:33.707Z,19.90
2022-07-26T16:07:01.008Z,23.20
2022-07-26T16:09:28.417Z,20.45
2022-07-26T16:11:56.756Z,18.92
2022-07-26T16:14:23.903Z,16.98
2022-07-26T16:16:51.273Z,21.40
2022-07-26T16:19:18.438Z,20.65
2022-07-26T16:21:45.653Z,22.38
2022-07-26T16:24:13.156Z,21.35
2022-07-26T16:26:40.992Z,22.30
2022-07-26T16:29:09.056Z,20.33
2022-07-26T16:31:37.332Z,18.73
2022-07-26T16:34:04.642Z,24.30
2022-07-26T16:36:31.928Z,18.88
2022-07-26T16:38:59.207Z,21.60
2022-07-26T16:41:26.357Z,23.85
2022-07-26T16:43:53.583Z,22.98
2022-07-26T16:46:21.076Z,19.70
2022-07-26T16:48:48.564Z,25.75
2022-07-26T16:51:16.845Z,19.17
2022-07-26T16:53:44.596Z,20.83
2022-07-26T16:56:11.757Z,24.23
2022-07-26T16:58:38.947Z,21.05
2022-07-26T17:01:06.263Z,25.65
2022-07-26T17:03:33.379Z,21.75
2022-07-26T17:06:06.503Z,27.83
2022-07-26T17:08:34.194Z,22.33
2022-07-26T17:11:01.631Z,24.63
2022-07-26T17:13:28.792Z,29.58
2022-07-26T17:15:56.052Z,25.20
2022-07-26T17:18:23.219Z,26.27
2022-07-26T17:20:50.482Z,24.67
2022-07-26T17:23:18.727Z,23.42
2022-07-26T17:25:46.299Z,23.65
2022-07-26T17:28:13.953Z,23.83
2022-07-26T17:30:41.155Z,22.95
2022-07-26T17:33:08.312Z,27.13
2022-07-26T17:35:35.758Z,27.75
2022-07-26T17:38:02.963Z,28.13
2022-07-26T17:40:31.893Z,22.27
2022-07-26T17:42:59.899Z,28.33
2022-07-26T17:45:27.080Z,23.52
2022-07-26T17:47:54.205Z,25.88
2022-07-26T17:50:38.226Z,29.23
2022-07-26T17:53:06.071Z,24.30
2022-07-26T17:55:34.158Z,24.23
2022-07-26T17:58:01.519Z,24.13
2022-07-26T18:00:29.366Z,31.52
2022-07-26T18:02:57.886Z,21.60
2022-07-26T18:05:33.013Z,26.63
2022-07-26T18:08:02.248Z,22.77
2022-07-26T18:10:29.534Z,27.85
2022-07-26T18:12:56.611Z,22.77
2022-07-26T18:15:23.961Z,22.80
2022-07-26T18:17:51.058Z,25.08
2022-07-26T18:20:18.248Z,25.63
2022-07-26T18:22:50.361Z,23.05
2022-07-26T18:25:17.937Z,28.60
2022-07-26T18:27:45.241Z,29.13
2022-07-26T18:30:12.517Z,24.27
2022-07-26T18:32:39.746Z,27.27
2022-07-26T18:35:07.314Z,21.52
2022-07-26T18:37:34.601Z,22.67
2022-07-26T18:40:02.228Z,29.52
2022-07-26T18:42:29.519Z,24.73
2022-07-26T18:44:56.919Z,22.90
2022-07-26T18:47:24.274Z,23.80
2022-07-26T18:49:51.582Z,22.58
2022-07-26T18:52:28.943Z,22.67
2022-07-26T18:55:02.426Z,20.98
2022-07-26T18:57:29.684Z,22.60
2022-07-26T18:59:56.777Z,23.13
2022-07-26T19:02:23.908Z,23.20
2022-07-26T19:04:51.151Z,22.75
2022-07-26T19:07:18.439Z,20.92
2022-07-26T19:09:45.531Z,23.13
2022-07-26T19:12:12.639Z,27.75
2022-07-26T19:14:39.741Z,21.00
2022-07-26T19:17:10.095Z,26.65
2022-07-26T19:19:38.795Z,25.52
2022-07-26T19:22:06.020Z,22.83
2022-07-26T19:24:41.741Z,19.10
2022-07-26T19:27:09.757Z,24.63
2022-07-26T19:29:38.172Z,24.75
2022-07-26T19:32:05.936Z,21.20
2022-07-26T19:34:33.110Z,21.92
2022-07-26T19:37:00.510Z,23.35
2022-07-26T19:39:27.650Z,19.63
2022-07-26T19:41:55.010Z,21.27
2022-07-26T19:44:22.162Z,22.55
2022-07-26T19:46:52.993Z,21.90
2022-07-26T19:49:22.927Z,24.13
2022-07-26T19:51:50.469Z,18.90
2022-07-26T19:54:17.669Z,20.33
2022-07-26T19:56:46.530Z,23.85
2022-07-26T19:59:16.878Z,23.33
2022-07-26T20:01:50.037Z,28.60
2022-07-26T20:04:18.692Z,22.95
2022-07-26T20:06:46.302Z,24.13
2022-07-26T20:09:14.122Z,29.50
2022-07-26T20:11:43.206Z,23.42
2022-07-26T20:14:10.406Z,23.23
2022-07-26T20:16:37.738Z,20.25
2022-07-26T20:19:05.007Z,25.02
2022-07-26T20:21:32.241Z,22.15
2022-07-26T20:23:59.375Z,25.50
2022-07-26T20:26:26.544Z,24.95
2022-07-26T20:28:55.401Z,22.33
2022-07-26T20:31:22.803Z,22.80
2022-07-26T20:33:49.996Z,22.67
2022-07-26T20:36:17.322Z,26.63
2022-07-26T20:38:49.542Z,23.27
2022-07-26T20:41:18.763Z,25.73
2022-07-26T20:43:48.598Z,22.00
2022-07-26T20:46:15.979Z,25.65
2022-07-26T20:48:43.761Z,25.05
2022-07-26T20:51:13.254Z,28.60
2022-07-26T20:53:41.816Z,23.77
2022-07-26T20:56:10.500Z,33.33
2022-07-26T20:58:39.003Z,23.45
2022-07-26T21:01:06.399Z,29.02
2022-07-26T21:03:33.745Z,29.45
2022-07-26T21:06:01.051Z,21.60
2022-07-26T21:08:28.367Z,24.45
2022-07-26T21:10:55.490Z,27.80
2022-07-26T21:13:22.587Z,26.30
2022-07-26T21:15:51.477Z,20.88
2022-07-26T21:18:18.593Z,23.92
2022-07-26T21:20:46.106Z,18.40
2022-07-26T21:23:17.865Z,24.48
2022-07-26T21:25:45.764Z,31.65
2022-07-26T21:28:12.878Z,26.58
2022-07-26T21:30:40.269Z,21.38
2022-07-26T21:33:08.079Z,19.42
2022-07-26T21:35:35.383Z,16.65
2022-07-26T21:38:02.557Z,26.55
2022-07-26T21:40:29.850Z,22.00
2022-07-26T21:42:57.040Z,20.27
2022-07-26T21:45:24.102Z,19.98
2022-07-26T21:47:51.436Z,26.55
2022-07-26T21:50:18.548Z,29.17
2022-07-26T21:52:45.728Z,23.20
2022-07-26T21:55:15.462Z,19.25
2022-07-26T21:57:45.323Z,23.75
2022-07-26T22:00:15.170Z,23.75
2022-07-26T22:02:42.587Z,17.75
2022-07-26T22:05:28.528Z,17.83
2022-07-26T22:07:56.175Z,17.55
2022-07-26T22:10:23.615Z,17.13
2022-07-26T22:12:51.633Z,16.95
2022-07-26T22:15:19.069Z,15.80
2022-07-26T22:17:46.401Z,13.63
2022-07-26T22:20:13.642Z,17.80
2022-07-26T22:22:40.921Z,16.48
2022-07-26T22:25:08.657Z,16.33
2022-07-26T22:27:35.732Z,14.75
2022-07-26T22:30:03.071Z,18.38
2022-07-26T22:32:30.199Z,16.98
2022-07-26T22:34:57.310Z,17.35
2022-07-26T22:37:24.438Z,16.83
2022-07-26T22:39:51.534Z,28.55
2022-07-26T22:42:18.774Z,21.70
2022-07-26T22:44:45.883Z,22.30
2022-07-26T22:47:13.140Z,19.63
2022-07-26T22:49:40.264Z,21.48
2022-07-26T22:52:07.516Z,24.40
2022-07-26T22:54:34.608Z,18.48
2022-07-26T22:57:01.800Z,22.88
2022-07-26T22:59:28.932Z,23.85
2022-07-26T23:01:56.856Z,16.92
2022-07-26T23:04:24.035Z,17.10
2022-07-26T23:06:51.359Z,16.55
2022-07-26T23:09:22.059Z,20.05
2022-07-26T23:11:49.153Z,24.67
2022-07-26T23:14:16.227Z,21.75
2022-07-26T23:16:43.476Z,17.83
2022-07-26T23:19:11.619Z,19.08
2022-07-26T23:21:39.042Z,24.55
2022-07-26T23:24:06.573Z,20.42
2022-07-26T23:26:33.723Z,22.27
2022-07-26T23:29:00.939Z,21.70
2022-07-26T23:31:28.172Z,19.15
2022-07-26T23:33:55.221Z,24.00
2022-07-26T23:36:24.507Z,21.80
2022-07-26T23:38:51.864Z,18.88
2022-07-26T23:41:19.515Z,20.73
2022-07-26T23:43:46.616Z,19.92
2022-07-26T23:46:14.030Z,22.48
2022-07-26T23:48:41.190Z,23.33
2022-07-26T23:51:08.421Z,22.50
2022-07-26T23:53:35.715Z,22.58
2022-07-26T23:56:03.192Z,19.42
2022-07-26T23:58:30.498Z,19.20
